Time;durP1;ratioP1;P1;durP2;ratioP2;P2;SDS_P1;SDS_P2;PMS_P1;PMS_P2;Temp;Humidity;BMP_temperature;BMP_pressure;BME280_temperature;BME280_humidity;BME280_pressure;Samples;Min_cycle;Max_cycle;Signal;HPM_P1;HPM_P2
2023/03/26 00:01:07;;;;;;;2.78;0.45;;;7.60;99.90;;;;;;5087768;28;20125;-41
2023/03/26 00:03:34;;;;;;;3.53;0.45;;;7.60;99.90;;;;;;5088626;28;20532;-41
2023/03/26 00:06:02;;;;;;;3.00;0.55;;;7.60;99.90;;;;;;5085553;28;20052;-41
2023/03/26 00:08:27;;;;;;;4.43;0.50;;;7.60;99.90;;;;;;5085655;28;20050;-40
2023/03/26 00:10:53;;;;;;;5.57;0.60;;;7.60;99.90;;;;;;5085931;28;20131;-40
2023/03/26 00:13:19;;;;;;;5.72;0.55;;;7.60;99.90;;;;;;5086693;28;20052;-41
2023/03/26 00:15:45;;;;;;;8.48;0.80;;;7.70;99.90;;;;;;5078129;28;20040;-40
2023/03/26 00:18:10;;;;;;;5.93;1.65;;;7.70;99.90;;;;;;5083419;28;20048;-41
2023/03/26 00:20:37;;;;;;;3.05;0.40;;;7.70;99.90;;;;;;5079296;28;20051;-40
2023/03/26 00:23:03;;;;;;;7.60;0.75;;;7.70;99.90;;;;;;5086013;28;20055;-42
2023/03/26 00:25:30;;;;;;;4.50;0.70;;;7.70;99.90;;;;;;5080346;28;20049;-50
2023/03/26 00:27:57;;;;;;;4.65;0.57;;;7.70;99.90;;;;;;5082493;28;20505;-40
2023/03/26 00:30:23;;;;;;;2.97;0.43;;;7.70;99.90;;;;;;5078550;28;20539;-40
2023/03/26 00:32:48;;;;;;;2.70;0.57;;;7.70;99.90;;;;;;5078800;28;20052;-39
2023/03/26 00:35:14;;;;;;;6.95;0.63;;;7.70;99.90;;;;;;5085919;28;20048;-41
2023/03/26 00:37:41;;;;;;;3.30;0.50;;;7.70;99.90;;;;;;5074987;28;20201;-40
2023/03/26 00:40:09;;;;;;;5.43;0.95;;;7.70;99.90;;;;;;5083745;28;20494;-44
2023/03/26 00:42:36;;;;;;;6.53;0.98;;;7.70;99.90;;;;;;5085579;28;20059;-41
2023/03/26 00:45:04;;;;;;;6.40;0.80;;;7.70;99.90;;;;;;5087693;28;20059;-41
2023/03/26 00:47:30;;;;;;;8.68;0.90;;;7.70;99.90;;;;;;5087501;28;20059;-43
2023/03/26 00:49:56;;;;;;;4.43;0.80;;;7.70;99.90;;;;;;5086831;28;20040;-41
2023/03/26 00:52:22;;;;;;;5.13;0.60;;;7.80;99.90;;;;;;5088539;28;20048;-41
2023/03/26 00:54:50;;;;;;;2.50;0.50;;;7.80;99.90;;;;;;5081312;28;20119;-42
2023/03/26 00:57:20;;;;;;;3.63;0.60;;;7.80;99.90;;;;;;5088554;28;20055;-43
2023/03/26 00:59:49;;;;;;;1.92;0.50;;;7.70;99.90;;;;;;5089102;28;20056;-42
2023/03/26 01:02:19;;;;;;;4.45;0.50;;;7.70;99.90;;;;;;5085845;28;20055;-41
2023/03/26 01:04:56;;;;;;;4.05;0.65;;;7.70;99.90;;;;;;5086622;28;20485;-41
2023/03/26 01:07:27;;;;;;;3.33;0.70;;;7.70;99.90;;;;;;5090672;28;20083;-42
2023/03/26 01:09:56;;;;;;;4.43;0.80;;;7.60;99.90;;;;;;5073058;28;20520;-42
2023/03/26 01:12:30;;;;;;;2.58;0.50;;;7.60;99.90;;;;;;5087959;28;20084;-40
2023/03/26 01:14:59;;;;;;;3.55;0.60;;;7.60;99.90;;;;;;5088947;28;20135;-41
2023/03/26 01:17:32;;;;;;;8.45;0.90;;;7.50;99.90;;;;;;5088282;28;20494;-42
2023/03/26 01:20:18;;;;;;;5.70;1.10;;;7.50;99.90;;;;;;5085051;28;20050;-41
2023/03/26 01:22:48;;;;;;;5.35;0.73;;;7.50;99.90;;;;;;5089625;28;20082;-41
2023/03/26 01:25:14;;;;;;;2.95;0.50;;;7.50;99.90;;;;;;5088498;28;20508;-42
2023/03/26 01:27:49;;;;;;;6.75;1.15;;;7.40;99.90;;;;;;5077922;28;20496;-41
2023/03/26 01:30:51;;;;;;;4.20;0.90;;;7.50;99.90;;;;;;5084283;28;20131;-42
2023/03/26 01:33:39;;;;;;;9.15;0.85;;;7.50;99.90;;;;;;5082451;28;20055;-41
2023/03/26 01:36:08;;;;;;;4.53;0.52;;;7.50;99.90;;;;;;5085037;28;20563;-42
2023/03/26 01:38:58;;;;;;;8.25;1.10;;;7.50;99.90;;;;;;5083025;28;20059;-41
2023/03/26 01:41:43;;;;;;;5.50;0.85;;;7.50;99.90;;;;;;5087699;28;20063;-41
2023/03/26 01:44:13;;;;;;;3.30;0.75;;;7.50;99.90;;;;;;5085172;28;20157;-40
2023/03/26 01:46:40;;;;;;;6.95;0.70;;;7.60;99.90;;;;;;5085250;28;20276;-41
2023/03/26 01:49:11;;;;;;;5.63;1.23;;;7.60;99.90;;;;;;5090117;28;20413;-41
2023/03/26 01:51:39;;;;;;;3.20;0.60;;;7.60;99.90;;;;;;5071540;28;20052;-41
2023/03/26 01:54:08;;;;;;;7.00;0.70;;;7.60;99.90;;;;;;5089182;28;20043;-41
2023/03/26 01:56:48;;;;;;;5.70;0.73;;;7.50;99.90;;;;;;5088967;28;20055;-40
2023/03/26 01:59:39;;;;;;;6.90;0.77;;;7.50;99.90;;;;;;5088510;28;20134;-40
2023/03/26 02:02:20;;;;;;;3.92;0.45;;;7.40;99.90;;;;;;5089694;28;20063;-41
2023/03/26 02:05:07;;;;;;;3.67;0.75;;;7.40;99.90;;;;;;5060190;28;20071;-40
2023/03/26 02:08:04;;;;;;;4.40;0.90;;;7.40;99.90;;;;;;5085475;28;20063;-40
2023/03/26 02:10:35;;;;;;;6.50;0.55;;;7.30;99.90;;;;;;5081034;28;20147;-40
2023/03/26 02:13:01;;;;;;;5.78;0.80;;;7.30;99.90;;;;;;5082615;28;20075;-40
2023/03/26 02:15:27;;;;;;;5.32;0.73;;;7.30;99.90;;;;;;5089185;28;20144;-40
2023/03/26 02:17:53;;;;;;;2.97;0.60;;;7.20;99.90;;;;;;5086447;28;20079;-41
2023/03/26 02:20:20;;;;;;;3.75;0.60;;;7.30;99.90;;;;;;5085192;28;20054;-42
2023/03/26 02:22:47;;;;;;;3.53;0.80;;;7.20;99.90;;;;;;5083689;28;20039;-50
2023/03/26 02:25:18;;;;;;;4.00;0.73;;;7.30;99.90;;;;;;5088450;28;20076;-42
2023/03/26 02:27:45;;;;;;;7.03;0.70;;;7.30;99.90;;;;;;5090152;28;20059;-44
2023/03/26 02:30:14;;;;;;;4.20;0.77;;;7.20;99.90;;;;;;5088664;28;20054;-41
2023/03/26 02:32:42;;;;;;;2.60;0.57;;;7.20;99.90;;;;;;5087873;28;20074;-42
2023/03/26 02:35:09;;;;;;;4.97;0.63;;;7.30;99.90;;;;;;5089279;28;20047;-41
2023/03/26 02:37:35;;;;;;;8.05;0.75;;;7.30;99.90;;;;;;5088979;28;20101;-40
2023/03/26 02:40:03;;;;;;;3.85;0.80;;;7.30;99.90;;;;;;5084654;28;20141;-40
2023/03/26 02:42:29;;;;;;;4.22;0.73;;;7.30;99.90;;;;;;5086059;28;20052;-41
2023/03/26 02:44:55;;;;;;;2.17;0.52;;;7.30;99.90;;;;;;5087248;28;20060;-42
2023/03/26 02:47:20;;;;;;;4.75;0.70;;;7.30;99.90;;;;;;5085343;28;20139;-40
2023/03/26 02:49:46;;;;;;;5.30;0.50;;;7.30;99.90;;;;;;5089451;28;20144;-40
2023/03/26 02:52:15;;;;;;;1.00;0.32;;;7.30;99.90;;;;;;5088171;28;20051;-41
2023/03/26 02:54:41;;;;;;;3.88;0.73;;;7.30;99.90;;;;;;5078371;28;20497;-39
2023/03/26 02:57:07;;;;;;;5.45;0.90;;;7.30;99.90;;;;;;5089055;28;20054;-40
2023/03/26 02:59:32;;;;;;;7.03;0.65;;;7.30;99.90;;;;;;5082122;28;20049;-40
2023/03/26 03:01:58;;;;;;;3.85;0.60;;;7.30;99.90;;;;;;5083277;28;20051;-41
2023/03/26 03:04:24;;;;;;;4.70;0.82;;;7.30;99.90;;;;;;5088319;28;20063;-42
2023/03/26 03:06:51;;;;;;;6.68;0.65;;;7.30;99.90;;;;;;5088037;28;20134;-42
2023/03/26 03:09:17;;;;;;;2.50;0.50;;;7.30;99.90;;;;;;5078048;28;20056;-42
2023/03/26 03:11:43;;;;;;;2.78;0.65;;;7.30;99.90;;;;;;5086761;28;20489;-46
2023/03/26 03:14:09;;;;;;;3.95;0.68;;;7.20;99.90;;;;;;5087211;28;20113;-41
2023/03/26 03:16:34;;;;;;;6.95;0.88;;;7.20;99.90;;;;;;5081542;28;20063;-41
2023/03/26 03:19:00;;;;;;;3.55;0.73;;;7.10;99.90;;;;;;5080352;28;20052;-42
2023/03/26 03:21:27;;;;;;;5.25;0.80;;;7.00;99.90;;;;;;5087173;28;20054;-40
2023/03/26 03:23:54;;;;;;;2.25;0.60;;;7.00;99.90;;;;;;5086064;28;20143;-42
2023/03/26 03:26:22;;;;;;;3.88;0.80;;;6.90;99.90;;;;;;5086250;28;20051;-38
2023/03/26 03:28:50;;;;;;;2.92;0.75;;;6.90;99.90;;;;;;5084614;28;20056;-40
2023/03/26 03:31:17;;;;;;;2.38;0.50;;;6.90;99.90;;;;;;5085382;28;20447;-41
2023/03/26 03:33:45;;;;;;;6.63;0.95;;;6.90;99.90;;;;;;5085538;28;20097;-40
2023/03/26 03:36:12;;;;;;;3.75;0.90;;;6.90;99.90;;;;;;5085344;28;20043;-41
2023/03/26 03:38:39;;;;;;;3.17;0.82;;;6.90;99.90;;;;;;5084059;28;20074;-43
2023/03/26 03:41:05;;;;;;;4.40;0.93;;;6.90;99.90;;;;;;5085452;28;20394;-42
2023/03/26 03:43:31;;;;;;;4.47;0.60;;;6.90;99.90;;;;;;5084100;28;20130;-42
2023/03/26 03:45:58;;;;;;;4.72;0.90;;;6.90;99.90;;;;;;5085315;28;20131;-40
2023/03/26 03:48:24;;;;;;;6.53;0.95;;;6.90;99.90;;;;;;5080718;28;20450;-42
2023/03/26 03:50:50;;;;;;;4.60;1.05;;;6.90;99.90;;;;;;5081977;28;20052;-48
2023/03/26 03:53:17;;;;;;;3.88;0.75;;;6.90;99.90;;;;;;5085270;28;20036;-40
2023/03/26 03:55:51;;;;;;;7.78;1.02;;;6.90;99.90;;;;;;5081447;28;20131;-40
2023/03/26 03:58:29;;;;;;;4.25;0.88;;;6.90;99.90;;;;;;5058078;28;20058;-40
2023/03/26 04:01:01;;;;;;;5.07;1.15;;;7.00;99.90;;;;;;5084063;28;20062;-41
2023/03/26 04:03:27;;;;;;;3.03;0.80;;;7.00;99.90;;;;;;5084027;28;20051;-40
2023/03/26 04:05:54;;;;;;;8.20;1.80;;;7.00;99.90;;;;;;5078462;28;20048;-40
2023/03/26 04:08:21;;;;;;;4.18;1.05;;;7.00;99.90;;;;;;5084049;28;20047;-40
2023/03/26 04:10:48;;;;;;;7.80;1.70;;;7.00;99.90;;;;;;5082203;28;20052;-41
2023/03/26 04:13:14;;;;;;;4.57;1.45;;;7.10;99.90;;;;;;5083484;28;20070;-41
2023/03/26 04:15:41;;;;;;;9.80;1.50;;;7.00;99.90;;;;;;5082974;28;20044;-39
2023/03/26 04:18:10;;;;;;;2.83;0.85;;;7.10;99.90;;;;;;5090334;28;20047;-40
2023/03/26 04:20:39;;;;;;;6.00;1.40;;;7.10;99.90;;;;;;5084327;28;20409;-40
2023/03/26 04:23:06;;;;;;;5.88;1.50;;;7.10;99.90;;;;;;5084350;28;20564;-41
2023/03/26 04:25:35;;;;;;;7.68;1.23;;;7.10;99.90;;;;;;5087900;28;20052;-40
2023/03/26 04:28:05;;;;;;;6.50;1.85;;;7.10;99.90;;;;;;5086686;28;20063;-40
2023/03/26 04:30:32;;;;;;;4.10;1.33;;;7.10;99.90;;;;;;5087420;28;20127;-41
2023/03/26 04:33:02;;;;;;;5.82;1.52;;;7.20;99.90;;;;;;5084293;28;20060;-41
2023/03/26 04:35:33;;;;;;;3.95;1.48;;;7.20;99.90;;;;;;5084024;28;20060;-42
2023/03/26 04:37:59;;;;;;;3.97;1.27;;;7.20;99.90;;;;;;5071145;28;20520;-42
2023/03/26 04:40:25;;;;;;;4.40;1.10;;;7.20;99.90;;;;;;5089254;28;20081;-43
2023/03/26 04:42:53;;;;;;;9.38;1.80;;;7.20;99.90;;;;;;5084081;28;20044;-41
2023/03/26 04:45:22;;;;;;;5.18;1.10;;;7.20;99.90;;;;;;5084260;28;20151;-41
2023/03/26 04:47:49;;;;;;;7.55;1.35;;;7.20;99.90;;;;;;5077925;28;20047;-40
2023/03/26 04:50:15;;;;;;;4.22;1.30;;;7.20;99.90;;;;;;5076361;28;20511;-41
2023/03/26 04:52:41;;;;;;;4.95;1.48;;;7.20;99.90;;;;;;5078165;28;20055;-40
2023/03/26 04:55:19;;;;;;;3.78;1.40;;;7.20;99.90;;;;;;5077838;28;20072;-40
2023/03/26 04:57:50;;;;;;;5.50;1.50;;;7.20;99.90;;;;;;5086177;28;20121;-41
2023/03/26 05:00:19;;;;;;;4.53;1.70;;;7.20;99.90;;;;;;5087071;28;20113;-40
2023/03/26 05:02:48;;;;;;;4.32;1.30;;;7.20;99.90;;;;;;5067197;28;20048;-40
2023/03/26 05:05:14;;;;;;;9.07;2.42;;;7.20;99.90;;;;;;5088522;28;20078;-42
2023/03/26 05:07:41;;;;;;;8.73;1.60;;;7.20;99.90;;;;;;5082232;28;20151;-41
2023/03/26 05:10:07;;;;;;;8.02;1.75;;;7.30;99.90;;;;;;5086759;28;20048;-41
2023/03/26 05:12:33;;;;;;;5.03;2.20;;;7.30;99.90;;;;;;5086689;28;20079;-40
2023/03/26 05:14:59;;;;;;;7.25;1.83;;;7.20;99.90;;;;;;5081046;28;20576;-40
2023/03/26 05:17:25;;;;;;;8.43;1.65;;;7.30;99.90;;;;;;5088351;28;20066;-41
2023/03/26 05:19:51;;;;;;;5.15;1.80;;;7.30;99.90;;;;;;5085264;28;20486;-43
2023/03/26 05:22:19;;;;;;;6.18;1.33;;;7.30;99.90;;;;;;5089723;28;20054;-41
2023/03/26 05:24:45;;;;;;;5.43;1.85;;;7.30;99.90;;;;;;5086750;28;20125;-46
2023/03/26 05:27:15;;;;;;;6.00;1.48;;;7.30;99.90;;;;;;5078862;28;20142;-54
2023/03/26 05:29:42;;;;;;;7.07;1.42;;;7.30;99.90;;;;;;5066103;28;20075;-40
2023/03/26 05:32:09;;;;;;;9.32;1.65;;;7.40;99.90;;;;;;5087230;28;20052;-42
2023/03/26 05:34:34;;;;;;;6.03;1.50;;;7.40;99.90;;;;;;5088298;28;20047;-40
2023/03/26 05:37:03;;;;;;;7.00;1.60;;;7.40;99.90;;;;;;5086082;28;20417;-40
2023/03/26 05:39:28;;;;;;;7.25;1.83;;;7.40;99.90;;;;;;5088191;28;20060;-40
2023/03/26 05:41:54;;;;;;;6.32;1.50;;;7.40;99.90;;;;;;5087576;28;20664;-40
2023/03/26 05:44:20;;;;;;;6.25;1.40;;;7.40;99.90;;;;;;5085136;28;20146;-39
2023/03/26 05:46:45;;;;;;;3.35;1.02;;;7.40;99.90;;;;;;5084984;28;20421;-40
2023/03/26 05:49:11;;;;;;;5.65;2.25;;;7.40;99.90;;;;;;5086808;28;20510;-40
2023/03/26 05:51:37;;;;;;;4.40;1.65;;;7.40;99.90;;;;;;5084605;28;20064;-41
2023/03/26 05:54:03;;;;;;;6.38;1.55;;;7.40;99.90;;;;;;5080056;28;20087;-41
2023/03/26 05:56:29;;;;;;;7.10;1.90;;;7.40;99.90;;;;;;5084849;28;20056;-42
2023/03/26 05:58:55;;;;;;;6.70;1.80;;;7.40;99.90;;;;;;5080132;28;20051;-54
2023/03/26 06:01:21;;;;;;;6.05;1.83;;;7.40;99.90;;;;;;5079236;28;20554;-41
2023/03/26 06:03:47;;;;;;;5.50;1.50;;;7.50;99.90;;;;;;5075247;28;20056;-44
2023/03/26 06:06:15;;;;;;;8.05;1.80;;;7.50;99.90;;;;;;5078776;28;20052;-42
2023/03/26 06:08:47;;;;;;;6.50;1.50;;;7.50;99.90;;;;;;5079871;28;20036;-40
2023/03/26 06:11:15;;;;;;;5.55;1.63;;;7.50;99.90;;;;;;5080349;28;20583;-41
2023/03/26 06:13:41;;;;;;;7.15;1.70;;;7.50;99.90;;;;;;5083690;28;20104;-42
2023/03/26 06:16:11;;;;;;;4.18;1.92;;;7.50;99.90;;;;;;5085539;28;20063;-40
2023/03/26 06:18:38;;;;;;;5.60;1.60;;;7.50;99.90;;;;;;5081411;28;20044;-40
2023/03/26 06:21:04;;;;;;;6.85;1.75;;;7.50;99.90;;;;;;5084803;28;20074;-40
2023/03/26 06:23:30;;;;;;;6.70;1.45;;;7.50;99.90;;;;;;5086599;28;20521;-40
2023/03/26 06:25:56;;;;;;;6.72;1.73;;;7.60;99.90;;;;;;5081616;28;20048;-40
2023/03/26 06:28:22;;;;;;;9.70;2.03;;;7.60;99.90;;;;;;5083148;28;20043;-40
2023/03/26 06:30:48;;;;;;;8.35;1.77;;;7.60;99.90;;;;;;5081707;28;20044;-39
2023/03/26 06:33:14;;;;;;;7.45;1.88;;;7.60;99.90;;;;;;5077414;28;20048;-40
2023/03/26 06:35:41;;;;;;;9.88;1.67;;;7.70;99.90;;;;;;5075374;28;20445;-41
2023/03/26 06:38:07;;;;;;;11.82;2.03;;;7.70;99.90;;;;;;5083606;28;20420;-40
2023/03/26 06:40:33;;;;;;;4.70;1.27;;;7.70;99.90;;;;;;5080062;28;20059;-40
2023/03/26 06:42:59;;;;;;;8.00;1.63;;;7.70;99.90;;;;;;5084404;28;20052;-55
2023/03/26 06:45:26;;;;;;;9.75;1.52;;;7.70;99.90;;;;;;5075341;28;20063;-40
2023/03/26 06:47:52;;;;;;;8.93;1.35;;;7.80;99.90;;;;;;5087514;28;20070;-45
2023/03/26 06:50:18;;;;;;;7.95;1.10;;;7.70;99.90;;;;;;5086291;28;20576;-46
2023/03/26 06:52:44;;;;;;;10.85;2.33;;;7.70;99.90;;;;;;5084796;28;20052;-45
2023/03/26 06:55:10;;;;;;;9.55;1.23;;;7.70;99.90;;;;;;5078672;28;20056;-41
2023/03/26 06:57:36;;;;;;;11.23;1.58;;;7.70;99.90;;;;;;5084428;28;20055;-36
2023/03/26 07:00:03;;;;;;;6.32;1.50;;;7.70;99.90;;;;;;5078013;28;20044;-36
2023/03/26 07:02:29;;;;;;;7.68;1.45;;;7.70;99.90;;;;;;5081853;28;20067;-35
2023/03/26 07:04:55;;;;;;;9.65;1.55;;;7.70;99.90;;;;;;5072737;28;20044;-37
2023/03/26 07:07:22;;;;;;;8.00;1.42;;;7.80;99.90;;;;;;5062028;28;20438;-37
2023/03/26 07:09:48;;;;;;;8.20;1.48;;;7.80;99.90;;;;;;5081251;28;20649;-36
2023/03/26 07:12:14;;;;;;;5.40;1.02;;;7.80;99.90;;;;;;5084425;28;20064;-38
2023/03/26 07:14:40;;;;;;;10.25;1.48;;;7.90;99.90;;;;;;5075220;28;20097;-36
2023/03/26 07:17:05;;;;;;;11.27;1.25;;;7.90;99.90;;;;;;5082279;28;20406;-36
2023/03/26 07:19:31;;;;;;;9.15;0.98;;;7.90;99.90;;;;;;5077867;28;20044;-36
2023/03/26 07:21:57;;;;;;;10.88;1.52;;;7.90;99.90;;;;;;5078763;28;20044;-37
2023/03/26 07:24:24;;;;;;;11.60;1.67;;;7.90;99.90;;;;;;5062512;28;20055;-36
2023/03/26 07:26:57;;;;;;;6.93;1.48;;;7.90;99.90;;;;;;5076344;28;20100;-37
2023/03/26 07:29:46;;;;;;;10.63;1.58;;;8.00;99.90;;;;;;5083428;28;20048;-36
2023/03/26 07:32:26;;;;;;;9.98;1.10;;;8.00;99.90;;;;;;5071078;28;20405;-37
2023/03/26 07:34:55;;;;;;;4.15;1.27;;;8.00;99.90;;;;;;5081140;28;20060;-37
2023/03/26 07:37:32;;;;;;;10.25;1.42;;;8.10;99.90;;;;;;5079536;28;20056;-37
2023/03/26 07:40:00;;;;;;;12.68;1.40;;;8.10;99.90;;;;;;5083632;28;20047;-36
2023/03/26 07:42:43;;;;;;;12.63;1.70;;;8.10;99.90;;;;;;5082897;28;20052;-38
2023/03/26 07:45:16;;;;;;;9.68;1.17;;;8.20;99.90;;;;;;5076670;28;20052;-37
2023/03/26 07:47:43;;;;;;;8.65;1.42;;;8.20;99.90;;;;;;5080336;28;20051;-37
2023/03/26 07:50:17;;;;;;;12.73;1.30;;;8.20;99.90;;;;;;5084554;28;20075;-38
2023/03/26 07:52:42;;;;;;;6.43;0.80;;;8.20;99.90;;;;;;5082255;28;20099;-36
2023/03/26 07:55:13;;;;;;;11.98;1.38;;;8.30;99.90;;;;;;5076490;28;20056;-37
2023/03/26 07:57:52;;;;;;;11.95;1.48;;;8.30;99.90;;;;;;5082149;28;20509;-37
2023/03/26 08:00:32;;;;;;;8.18;1.55;;;8.30;99.90;;;;;;5083465;28;20109;-37
2023/03/26 08:03:15;;;;;;;10.98;1.08;;;8.30;99.90;;;;;;5080150;28;20050;-36
2023/03/26 08:05:53;;;;;;;13.32;2.13;;;8.40;99.90;;;;;;5084855;28;20056;-36
2023/03/26 08:08:49;;;;;;;6.68;1.25;;;8.40;99.90;;;;;;5083738;28;20044;-37
2023/03/26 08:11:45;;;;;;;12.82;1.00;;;8.40;99.90;;;;;;5073295;28;20052;-36
2023/03/26 08:14:40;;;;;;;9.82;0.98;;;8.40;99.90;;;;;;5074148;28;20050;-36
2023/03/26 08:17:13;;;;;;;8.90;1.10;;;8.50;99.90;;;;;;5073909;28;20074;-36
2023/03/26 08:19:56;;;;;;;12.07;1.75;;;8.40;99.90;;;;;;5075433;28;20047;-36
2023/03/26 08:22:37;;;;;;;10.52;1.25;;;8.40;99.90;;;;;;5076649;28;20056;-36
2023/03/26 08:25:26;;;;;;;8.30;1.45;;;8.50;99.90;;;;;;5070640;28;20513;-36
2023/03/26 08:28:22;;;;;;;8.73;1.15;;;8.50;99.90;;;;;;5075452;28;20196;-36
2023/03/26 08:30:49;;;;;;;6.30;1.05;;;8.50;99.90;;;;;;5076119;28;20057;-42
2023/03/26 08:33:19;;;;;;;10.43;2.42;;;8.60;99.90;;;;;;5079397;28;20048;-36
2023/03/26 08:35:46;;;;;;;13.00;1.50;;;8.60;99.90;;;;;;5059463;28;20083;-36
2023/03/26 08:38:14;;;;;;;8.25;1.05;;;8.50;99.90;;;;;;5083278;28;21874;-35
2023/03/26 08:41:10;;;;;;;10.98;1.20;;;8.50;99.90;;;;;;5077826;28;21652;-36
2023/03/26 08:44:08;;;;;;;10.52;2.65;;;8.50;99.90;;;;;;5081831;28;20048;-36
2023/03/26 08:46:36;;;;;;;11.60;1.77;;;8.50;99.90;;;;;;5073280;28;20122;-35
2023/03/26 08:49:17;;;;;;;11.43;1.20;;;8.50;99.90;;;;;;5081594;28;20044;-36
2023/03/26 08:52:15;;;;;;;7.50;1.27;;;8.60;99.90;;;;;;5084629;28;20146;-54
2023/03/26 08:55:05;;;;;;;9.43;1.23;;;8.60;99.90;;;;;;5079237;28;20059;-36
2023/03/26 08:58:03;;;;;;;23.83;2.47;;;8.70;99.90;;;;;;5084157;28;20109;-37
2023/03/26 09:00:48;;;;;;;11.65;1.70;;;8.70;99.90;;;;;;5084170;28;20052;-39
2023/03/26 09:03:38;;;;;;;10.80;1.45;;;8.70;99.90;;;;;;5088371;28;20082;-36
2023/03/26 09:06:20;;;;;;;8.52;1.33;;;8.70;99.90;;;;;;5078474;28;20056;-36
2023/03/26 09:09:21;;;;;;;7.32;0.90;;;8.70;99.90;;;;;;5082323;28;20063;-37
2023/03/26 09:11:52;;;;;;;9.35;1.63;;;8.70;99.90;;;;;;5001787;28;20053;-37
2023/03/26 09:14:51;;;;;;;11.63;1.20;;;8.80;99.90;;;;;;5072025;28;20047;-39
2023/03/26 09:17:57;;;;;;;9.48;1.08;;;8.90;99.90;;;;;;5084039;28;20048;-37
2023/03/26 09:20:51;;;;;;;9.20;0.98;;;8.90;99.90;;;;;;5038054;28;20044;-37
2023/03/26 09:23:37;;;;;;;9.13;1.40;;;8.90;99.90;;;;;;5081388;28;20090;-38
2023/03/26 09:26:12;;;;;;;8.50;1.33;;;9.00;99.90;;;;;;5079012;28;20047;-37
2023/03/26 09:29:22;;;;;;;7.30;1.10;;;9.00;99.90;;;;;;5078545;28;20059;-38
2023/03/26 09:32:20;;;;;;;9.77;1.42;;;9.00;99.90;;;;;;5074984;28;20061;-38
2023/03/26 09:35:37;;;;;;;8.23;1.30;;;9.00;99.90;;;;;;5082488;28;20497;-37
2023/03/26 09:38:22;;;;;;;15.60;2.55;;;8.90;99.90;;;;;;5054391;28;20082;-38
2023/03/26 09:41:07;;;;;;;12.98;1.75;;;9.00;99.90;;;;;;5078911;28;20131;-37
2023/03/26 09:43:54;;;;;;;9.40;0.75;;;9.10;99.90;;;;;;5082185;28;20410;-37
2023/03/26 09:46:35;;;;;;;7.80;1.35;;;9.20;99.90;;;;;;5083717;28;20052;-37
2023/03/26 09:49:27;;;;;;;13.07;0.93;;;9.20;99.90;;;;;;5086063;28;20578;-38
2023/03/26 09:52:14;;;;;;;5.78;0.73;;;9.30;99.90;;;;;;5076864;28;20509;-38
2023/03/26 09:54:47;;;;;;;5.30;1.27;;;9.40;99.90;;;;;;5077251;28;20167;-38
2023/03/26 09:57:56;;;;;;;8.23;1.50;;;9.50;99.90;;;;;;5088351;28;20482;-45
2023/03/26 10:00:31;;;;;;;16.70;1.55;;;9.70;99.90;;;;;;5081483;28;20052;-38
2023/03/26 10:03:24;;;;;;;13.43;1.70;;;9.80;99.90;;;;;;5083940;28;20332;-39
2023/03/26 10:05:59;;;;;;;10.07;1.42;;;9.90;99.90;;;;;;5084744;28;20502;-37
2023/03/26 10:08:49;;;;;;;13.68;2.17;;;10.00;99.90;;;;;;5083929;28;20143;-37
2023/03/26 10:11:42;;;;;;;7.18;0.85;;;10.20;99.90;;;;;;5083557;28;20119;-37
2023/03/26 10:14:14;;;;;;;10.35;1.58;;;10.30;99.90;;;;;;5083396;28;20542;-37
2023/03/26 10:16:49;;;;;;;6.03;1.87;;;10.40;99.90;;;;;;5080620;28;20547;-37
2023/03/26 10:19:39;;;;;;;8.30;0.95;;;10.50;99.90;;;;;;5085882;28;20116;-37
2023/03/26 10:22:33;;;;;;;13.32;1.50;;;10.50;99.90;;;;;;5073989;28;20461;-54
2023/03/26 10:25:23;;;;;;;11.35;1.25;;;10.60;99.90;;;;;;5082982;28;20048;-38
2023/03/26 10:28:13;;;;;;;15.07;0.98;;;10.60;99.90;;;;;;5084828;28;20582;-37
2023/03/26 10:30:58;;;;;;;8.45;1.08;;;10.60;99.90;;;;;;5081556;28;20062;-44
2023/03/26 10:33:33;;;;;;;10.45;1.38;;;10.70;99.90;;;;;;5082952;28;20562;-44
2023/03/26 10:36:18;;;;;;;12.23;1.50;;;10.70;99.90;;;;;;5087319;28;20052;-45
2023/03/26 10:39:16;;;;;;;7.10;0.77;;;10.70;99.90;;;;;;5081562;28;20055;-42
2023/03/26 10:41:57;;;;;;;6.75;1.23;;;10.60;99.90;;;;;;5078981;28;20056;-51
2023/03/26 10:44:42;;;;;;;9.02;1.08;;;10.60;99.90;;;;;;5079257;28;20059;-42
2023/03/26 10:47:32;;;;;;;9.82;1.30;;;10.60;99.90;;;;;;5083017;28;20105;-41
2023/03/26 10:50:24;;;;;;;9.88;1.52;;;10.60;99.90;;;;;;5086443;28;20128;-41
2023/03/26 10:53:10;;;;;;;7.43;1.50;;;10.50;99.90;;;;;;5079558;28;20050;-41
2023/03/26 10:55:38;;;;;;;8.77;1.40;;;10.40;99.90;;;;;;5076448;28;20043;-40
2023/03/26 10:58:15;;;;;;;11.68;1.88;;;10.30;99.90;;;;;;5085443;28;20051;-37
2023/03/26 11:00:54;;;;;;;5.22;1.02;;;10.20;99.90;;;;;;5078261;28;20056;-36
2023/03/26 11:03:34;;;;;;;12.48;1.25;;;10.20;99.90;;;;;;5083175;28;20037;-36
2023/03/26 11:06:34;;;;;;;6.28;0.85;;;10.20;99.90;;;;;;5078870;28;20083;-36
2023/03/26 11:09:21;;;;;;;8.77;1.40;;;10.10;99.90;;;;;;5079227;28;20051;-36
2023/03/26 11:12:20;;;;;;;5.57;0.85;;;10.10;99.90;;;;;;5080180;28;20135;-42
2023/03/26 11:15:04;;;;;;;6.72;0.93;;;10.10;99.90;;;;;;5076878;28;20185;-36
2023/03/26 11:17:55;;;;;;;5.60;1.17;;;10.30;99.90;;;;;;5075870;28;20048;-36
2023/03/26 11:20:37;;;;;;;9.05;1.67;;;10.40;99.90;;;;;;5085174;28;20566;-37
2023/03/26 11:23:23;;;;;;;4.37;0.87;;;10.50;99.90;;;;;;5080663;28;20047;-37
2023/03/26 11:26:16;;;;;;;5.45;0.77;;;10.60;99.90;;;;;;5080587;28;20408;-37
2023/03/26 11:28:44;;;;;;;5.07;0.88;;;10.80;99.90;;;;;;5078051;28;20144;-37
2023/03/26 11:31:10;;;;;;;6.00;1.05;;;11.00;99.90;;;;;;5082019;28;20082;-37
2023/03/26 11:33:42;;;;;;;6.80;1.05;;;11.10;99.90;;;;;;5074056;28;20079;-37
2023/03/26 11:36:15;;;;;;;7.38;1.00;;;11.20;99.90;;;;;;5072669;28;20048;-37
2023/03/26 11:38:44;;;;;;;7.50;1.17;;;11.30;99.90;;;;;;5083622;28;20048;-37
2023/03/26 11:41:17;;;;;;;6.47;0.88;;;11.30;99.90;;;;;;5077917;28;20052;-38
2023/03/26 11:43:48;;;;;;;8.27;0.90;;;11.40;99.90;;;;;;5080547;28;20079;-37
2023/03/26 11:46:18;;;;;;;5.80;1.00;;;11.40;99.90;;;;;;5078928;28;20060;-37
2023/03/26 11:48:56;;;;;;;6.13;0.98;;;11.40;99.90;;;;;;5074396;28;20052;-37
2023/03/26 11:51:33;;;;;;;8.07;0.90;;;11.50;99.90;;;;;;5062099;28;20036;-46
2023/03/26 11:54:00;;;;;;;8.68;1.00;;;11.50;99.90;;;;;;5079400;28;20051;-37
2023/03/26 11:56:52;;;;;;;7.88;0.70;;;11.60;99.90;;;;;;5079759;28;20075;-37
2023/03/26 11:59:42;;;;;;;6.70;0.70;;;11.70;99.90;;;;;;5075122;28;20044;-37
2023/03/26 12:02:08;;;;;;;4.70;0.40;;;11.70;99.90;;;;;;5081606;28;20079;-37
2023/03/26 12:04:45;;;;;;;5.68;0.85;;;11.90;99.90;;;;;;5079279;28;20091;-37
2023/03/26 12:07:17;;;;;;;5.85;0.77;;;12.10;99.90;;;;;;5078705;28;20421;-37
2023/03/26 12:09:54;;;;;;;3.28;0.57;;;12.40;99.90;;;;;;5082102;28;20477;-37
2023/03/26 12:12:24;;;;;;;8.20;1.00;;;12.70;99.90;;;;;;5066613;28;20048;-38
2023/03/26 12:14:50;;;;;;;3.22;0.63;;;12.90;99.90;;;;;;5080496;28;20423;-37
2023/03/26 12:17:36;;;;;;;6.63;0.73;;;13.00;99.90;;;;;;5074082;28;20475;-38
2023/03/26 12:20:25;;;;;;;5.75;1.08;;;13.00;99.90;;;;;;5076924;28;20076;-37
2023/03/26 12:22:59;;;;;;;7.88;0.90;;;13.00;99.90;;;;;;5075256;28;20051;-37
2023/03/26 12:25:27;;;;;;;9.57;0.98;;;13.20;99.90;;;;;;5074962;28;20071;-37
2023/03/26 12:28:16;;;;;;;3.47;0.73;;;13.40;99.90;;;;;;5085586;28;20079;-37
2023/03/26 12:31:01;;;;;;;5.00;0.73;;;13.50;99.90;;;;;;5081663;28;20060;-37
2023/03/26 12:33:32;;;;;;;4.63;0.80;;;13.50;99.90;;;;;;5081297;28;20074;-36
2023/03/26 12:36:15;;;;;;;3.90;0.55;;;13.30;99.90;;;;;;5079750;28;20044;-37
2023/03/26 12:38:41;;;;;;;9.10;0.88;;;13.20;99.90;;;;;;5089192;28;20109;-37
2023/03/26 12:41:14;;;;;;;3.78;0.50;;;13.30;99.90;;;;;;5085500;28;20044;-38
2023/03/26 12:43:51;;;;;;;4.05;0.60;;;13.30;99.90;;;;;;5070045;28;20052;-37
2023/03/26 12:46:32;;;;;;;5.63;0.70;;;13.10;99.90;;;;;;5082988;28;20048;-36
2023/03/26 12:49:04;;;;;;;10.55;1.08;;;13.00;99.90;;;;;;5084294;28;20059;-37
2023/03/26 12:52:13;;;;;;;7.47;0.97;;;12.80;99.90;;;;;;5086646;28;20052;-37
2023/03/26 12:54:47;;;;;;;5.22;0.60;;;12.80;99.90;;;;;;5035583;28;20508;-36
2023/03/26 12:57:45;;;;;;;5.82;1.00;;;12.70;99.90;;;;;;5081901;28;21055;-36
2023/03/26 13:00:23;;;;;;;5.22;0.77;;;12.50;99.90;;;;;;5053221;28;20570;-37
2023/03/26 13:02:59;;;;;;;9.43;1.38;;;12.20;99.90;;;;;;5086868;28;20056;-37
2023/03/26 13:05:28;;;;;;;9.52;1.08;;;12.00;99.90;;;;;;5088207;28;20051;-36
2023/03/26 13:08:02;;;;;;;8.07;0.73;;;11.90;99.90;;;;;;5078140;28;20048;-36
2023/03/26 13:10:29;;;;;;;6.88;2.15;;;11.80;99.90;;;;;;5083428;28;20398;-37
2023/03/26 13:13:18;;;;;;;6.88;0.90;;;11.60;99.90;;;;;;5087560;28;20086;-37
2023/03/26 13:15:58;;;;;;;9.77;1.08;;;11.50;99.90;;;;;;5043608;28;20060;-36
2023/03/26 13:18:54;;;;;;;10.52;1.27;;;11.50;99.90;;;;;;5085396;28;20048;-36
2023/03/26 13:21:55;;;;;;;10.65;1.27;;;11.40;99.90;;;;;;5084825;28;20052;-36
2023/03/26 13:24:39;;;;;;;3.78;0.52;;;11.30;99.90;;;;;;5077600;28;20494;-37
2023/03/26 13:27:15;;;;;;;9.20;0.70;;;11.30;99.90;;;;;;5081060;28;20701;-37
2023/03/26 13:30:04;;;;;;;6.82;0.80;;;11.20;99.90;;;;;;5078552;28;20057;-37